Terminal Aerodrome Forecast
Issued by NWS

Home | Current Version | Previous Version | Text Only | Print | Product List | Glossary On
Versions: 1 2 3 4 5 6 7 8 9 10 11 12 13 14 15 16 17 18 19 20 21 22 23 24 25 26 27 28 29
000
FTUS45 KRIW 262300
TAFPNA
TAF
KPNA 262327Z 2700/2724 11007KT P6SM VCSH SCT025 BKN050
      TEMPO 2700/2704 5SM -SN BKN025
     FM270400 18006KT P6SM BKN060
     FM271200 VRB04KT P6SM SCT070
     FM271800 20005KT P6SM SCT070 BKN110
      AMD LTD TO CLD VIS AND WIND=

USA.gov is the U.S. government's official web portal to all federal, state and local government web resources and services.